Time,TemperatureF,DewpointF,PressureIn,WindDirection,WindDirectionDegrees,WindSpeedMPH,WindSpeedGustMPH,Humidity,HourlyPrecipIn,Conditions,Clouds,dailyrainin,SolarRadiationWatts/m^2,SoftwareType,DateUTC
2013-08-29 00:01:00,78.0,37.0,-100.00,SSW,208,14.0,19.0,23,0.00,,,0.00,0.000000,,2013-08-29 07:01:00,
2013-08-29 00:12:00,78.0,37.0,-100.00,SSW,208,14.0,19.0,23,0.00,,,0.00,0.000000,,2013-08-29 07:12:00,
2013-08-29 00:21:00,78.0,37.0,-100.00,SSW,208,14.0,19.0,23,0.00,,,0.00,0.000000,,2013-08-29 07:21:00,
2013-08-29 00:53:00,77.0,37.0,-100.00,SSW,212,11.0,18.0,24,0.00,,,0.00,0.000000,,2013-08-29 07:53:00,
2013-08-29 01:02:00,77.0,37.0,-100.00,SSW,212,11.0,18.0,24,0.00,,,0.00,0.000000,,2013-08-29 08:02:00,
2013-08-29 01:12:00,77.0,37.0,-100.00,SSW,212,11.0,18.0,24,0.00,,,0.00,0.000000,,2013-08-29 08:12:00,
2013-08-29 01:22:00,77.0,37.0,-100.00,SSW,212,11.0,18.0,24,0.00,,,0.00,0.000000,,2013-08-29 08:22:00,
2013-08-29 01:52:00,77.0,36.0,-100.00,SSW,212,11.0,17.0,23,0.00,,,0.00,0.000000,,2013-08-29 08:52:00,
2013-08-29 02:01:00,77.0,36.0,-100.00,SSW,212,11.0,17.0,23,0.00,,,0.00,0.000000,,2013-08-29 09:01:00,
2013-08-29 02:12:00,77.0,36.0,-100.00,SSW,212,11.0,17.0,23,0.00,,,0.00,0.000000,,2013-08-29 09:12:00,
2013-08-29 02:21:00,77.0,36.0,-100.00,SSW,212,11.0,17.0,23,0.00,,,0.00,0.000000,,2013-08-29 09:21:00,
2013-08-29 02:55:00,76.0,36.0,-100.00,SW,223,14.0,20.0,23,0.00,,,0.00,0.000000,,2013-08-29 09:55:00,
2013-08-29 03:06:00,76.0,36.0,-100.00,SW,223,14.0,20.0,23,0.00,,,0.00,0.000000,,2013-08-29 10:06:00,
2013-08-29 03:14:00,76.0,36.0,-100.00,SW,223,14.0,20.0,23,0.00,,,0.00,0.000000,,2013-08-29 10:14:00,
2013-08-29 03:53:00,77.0,38.0,-100.00,SW,217,14.0,18.0,25,0.00,,,0.00,0.000000,,2013-08-29 10:53:00,
2013-08-29 04:03:00,77.0,38.0,-100.00,SW,217,14.0,18.0,25,0.00,,,0.00,0.000000,,2013-08-29 11:03:00,
2013-08-29 04:12:00,77.0,38.0,-100.00,SW,217,14.0,18.0,25,0.00,,,0.00,0.000000,,2013-08-29 11:12:00,
2013-08-29 04:22:00,77.0,38.0,-100.00,SW,217,14.0,18.0,25,0.00,,,0.00,0.000000,,2013-08-29 11:22:00,
2013-08-29 04:52:00,77.0,39.0,-100.00,SW,219,13.0,20.0,26,0.00,,,0.00,0.000000,,2013-08-29 11:52:00,
2013-08-29 05:02:00,77.0,39.0,-100.00,SW,219,13.0,20.0,26,0.00,,,0.00,0.000000,,2013-08-29 12:02:00,
2013-08-29 05:11:00,77.0,39.0,-100.00,SW,219,13.0,20.0,26,0.00,,,0.00,0.000000,,2013-08-29 12:11:00,
2013-08-29 05:22:00,77.0,39.0,-100.00,SW,219,13.0,20.0,26,0.00,,,0.00,0.000000,,2013-08-29 12:22:00,
2013-08-29 05:52:00,75.0,38.0,-100.00,SSW,208,12.0,17.0,26,0.00,,,0.00,0.000000,,2013-08-29 12:52:00,
2013-08-29 06:02:00,75.0,38.0,-100.00,SSW,208,12.0,17.0,26,0.00,,,0.00,0.000000,,2013-08-29 13:02:00,
2013-08-29 06:12:00,75.0,38.0,-100.00,SSW,208,12.0,17.0,26,0.00,,,0.00,0.000000,,2013-08-29 13:12:00,
2013-08-29 06:22:00,75.0,38.0,-100.00,SSW,208,12.0,17.0,26,0.00,,,0.00,0.000000,,2013-08-29 13:22:00,
2013-08-29 06:52:00,75.0,39.0,-100.00,SW,217,11.0,16.0,27,0.00,,,0.00,0.000000,,2013-08-29 13:52:00,
2013-08-29 07:02:00,75.0,39.0,-100.00,SW,217,11.0,16.0,27,0.00,,,0.00,0.000000,,2013-08-29 14:02:00,
2013-08-29 07:11:00,75.0,39.0,-100.00,SW,217,11.0,16.0,27,0.00,,,0.00,0.000000,,2013-08-29 14:11:00,
2013-08-29 07:21:00,75.0,39.0,-100.00,SW,217,11.0,16.0,27,0.00,,,0.00,0.000000,,2013-08-29 14:21:00,
2013-08-29 07:52:00,76.0,38.0,-100.00,SW,220,13.0,17.0,25,0.00,,,0.00,79.000000,,2013-08-29 14:52:00,
2013-08-29 08:02:00,76.0,38.0,-100.00,SW,220,13.0,17.0,25,0.00,,,0.00,79.000000,,2013-08-29 15:02:00,
2013-08-29 08:12:00,76.0,38.0,-100.00,SW,220,13.0,17.0,25,0.00,,,0.00,79.000000,,2013-08-29 15:12:00,
2013-08-29 08:21:00,76.0,38.0,-100.00,SW,220,13.0,17.0,25,0.00,,,0.00,79.000000,,2013-08-29 15:21:00,
2013-08-29 08:53:00,78.0,37.0,-100.00,SSW,204,13.0,17.0,23,0.00,,,0.00,310.000000,,2013-08-29 15:53:00,
2013-08-29 09:04:00,78.0,37.0,-100.00,SSW,204,13.0,17.0,23,0.00,,,0.00,310.000000,,2013-08-29 16:04:00,
2013-08-29 09:13:00,78.0,37.0,-100.00,SSW,204,13.0,17.0,23,0.00,,,0.00,310.000000,,2013-08-29 16:13:00,
2013-08-29 09:24:00,78.0,37.0,-100.00,SSW,204,13.0,17.0,23,0.00,,,0.00,310.000000,,2013-08-29 16:24:00,
2013-08-29 09:54:00,80.0,38.0,-100.00,South,184,13.0,18.0,22,0.00,,,0.00,558.000000,,2013-08-29 16:54:00,
2013-08-29 10:03:00,80.0,38.0,-100.00,South,184,13.0,18.0,22,0.00,,,0.00,558.000000,,2013-08-29 17:03:00,
2013-08-29 10:13:00,80.0,38.0,-100.00,South,184,13.0,18.0,22,0.00,,,0.00,558.000000,,2013-08-29 17:13:00,
2013-08-29 10:22:00,80.0,38.0,-100.00,South,184,13.0,18.0,22,0.00,,,0.00,558.000000,,2013-08-29 17:22:00,
2013-08-29 17:52:00,88.0,44.0,-100.00,SSE,168,18.0,26.0,22,0.00,,,0.00,503.000000,,2013-08-30 00:52:00,
2013-08-29 18:01:00,88.0,44.0,-100.00,SSE,168,18.0,26.0,22,0.00,,,0.00,503.000000,,2013-08-30 01:01:00,
2013-08-29 18:12:00,88.0,44.0,-100.00,SSE,168,18.0,26.0,22,0.00,,,0.00,503.000000,,2013-08-30 01:12:00,
2013-08-29 18:21:00,88.0,44.0,-100.00,SSE,168,18.0,26.0,22,0.00,,,0.00,503.000000,,2013-08-30 01:21:00,
2013-08-29 18:52:00,86.0,45.0,-100.00,SSE,161,18.0,27.0,24,0.00,,,0.00,300.000000,,2013-08-30 01:52:00,
2013-08-29 19:02:00,86.0,45.0,-100.00,SSE,161,18.0,27.0,24,0.00,,,0.00,300.000000,,2013-08-30 02:02:00,
2013-08-29 19:11:00,86.0,45.0,-100.00,SSE,161,18.0,27.0,24,0.00,,,0.00,300.000000,,2013-08-30 02:11:00,
2013-08-29 19:21:00,86.0,45.0,-100.00,SSE,161,18.0,27.0,24,0.00,,,0.00,300.000000,,2013-08-30 02:21:00,
2013-08-29 19:52:00,85.0,47.0,-100.00,SSE,167,16.0,25.0,27,0.00,,,0.00,51.000000,,2013-08-30 02:52:00,
2013-08-29 20:02:00,85.0,47.0,-100.00,SSE,167,16.0,25.0,27,0.00,,,0.00,51.000000,,2013-08-30 03:02:00,
2013-08-29 20:12:00,85.0,47.0,-100.00,SSE,167,16.0,25.0,27,0.00,,,0.00,51.000000,,2013-08-30 03:12:00,
2013-08-29 20:22:00,85.0,47.0,-100.00,SSE,167,16.0,25.0,27,0.00,,,0.00,51.000000,,2013-08-30 03:22:00,
2013-08-29 20:55:00,82.0,52.0,-100.00,SSE,156,18.0,24.0,35,0.00,,,0.00,0.000000,,2013-08-30 03:55:00,
2013-08-29 21:04:00,82.0,52.0,-100.00,SSE,156,18.0,24.0,35,0.00,,,0.00,0.000000,,2013-08-30 04:04:00,
2013-08-29 21:14:00,82.0,52.0,-100.00,SSE,156,18.0,24.0,35,0.00,,,0.00,0.000000,,2013-08-30 04:14:00,
2013-08-29 21:24:00,82.0,52.0,-100.00,SSE,156,18.0,24.0,35,0.00,,,0.00,0.000000,,2013-08-30 04:24:00,
2013-08-29 21:54:00,81.0,56.0,-100.00,SSE,166,15.0,22.0,42,0.00,,,0.00,0.000000,,2013-08-30 04:54:00,
2013-08-29 22:03:00,81.0,56.0,-100.00,SSE,166,15.0,22.0,42,0.00,,,0.00,0.000000,,2013-08-30 05:03:00,
2013-08-29 22:12:00,81.0,56.0,-100.00,SSE,166,15.0,22.0,42,0.00,,,0.00,0.000000,,2013-08-30 05:12:00,
2013-08-29 22:23:00,81.0,56.0,-100.00,SSE,166,15.0,22.0,42,0.00,,,0.00,0.000000,,2013-08-30 05:23:00,
2013-08-29 22:52:00,80.0,56.0,-100.00,SSE,159,20.0,30.0,44,0.00,,,0.00,0.000000,,2013-08-30 05:52:00,
2013-08-29 23:02:00,80.0,56.0,-100.00,SSE,159,20.0,30.0,44,0.00,,,0.00,0.000000,,2013-08-30 06:02:00,
2013-08-29 23:12:00,80.0,56.0,-100.00,SSE,159,20.0,30.0,44,0.00,,,0.00,0.000000,,2013-08-30 06:12:00,
2013-08-29 23:22:00,80.0,56.0,-100.00,SSE,159,20.0,30.0,44,0.00,,,0.00,0.000000,,2013-08-30 06:22:00,
2013-08-29 23:53:00,77.0,53.0,-100.00,SSE,162,13.0,25.0,43,0.00,,,0.00,0.000000,,2013-08-30 06:53:00,